Time;durP1;ratioP1;P1;durP2;ratioP2;P2;SDS_P1;SDS_P2;PMS_P1;PMS_P2;Temp;Humidity;BMP_temperature;BMP_pressure;BME280_temperature;BME280_humidity;BME280_pressure;Samples;Min_cycle;Max_cycle;Signal;HPM_P1;HPM_P2
2022/08/22 00:01:53;;;;;;;10.60;3.38;;;19.50;99.90;;;;;;5078075;28;20103;-60
2022/08/22 00:04:37;;;;;;;7.93;2.78;;;19.50;99.90;;;;;;5078336;28;20300;-60
2022/08/22 00:07:15;;;;;;;8.70;2.83;;;19.60;99.90;;;;;;5078231;28;20355;-60
2022/08/22 00:09:56;;;;;;;8.63;2.88;;;19.50;99.90;;;;;;5077876;28;20028;-59
2022/08/22 00:12:49;;;;;;;7.75;3.10;;;19.50;99.90;;;;;;5078556;28;20404;-60
2022/08/22 00:15:15;;;;;;;;;;;19.60;99.90;;;;;;5077476;28;20163;-59
2022/08/22 00:17:57;;;;;;;7.75;2.80;;;19.60;99.90;;;;;;5077975;28;19983;-60
2022/08/22 00:20:48;;;;;;;7.00;3.03;;;19.60;99.90;;;;;;5077722;28;20430;-60
2022/08/22 00:23:14;;;;;;;11.60;3.20;;;19.60;99.90;;;;;;5077717;28;20024;-59
2022/08/22 00:26:02;;;;;;;6.40;3.00;;;19.60;99.90;;;;;;5077527;28;20301;-59
2022/08/22 00:28:40;;;;;;;10.38;3.38;;;19.70;99.90;;;;;;5077347;28;20147;-58
2022/08/22 00:31:21;;;;;;;9.65;3.30;;;19.70;99.90;;;;;;5077475;28;20059;-59
2022/08/22 00:33:46;;;;;;;6.30;2.78;;;19.70;99.90;;;;;;5077453;28;20028;-60
2022/08/22 00:36:24;;;;;;;7.45;2.97;;;19.60;99.90;;;;;;5077389;28;20028;-60
2022/08/22 00:38:59;;;;;;;7.85;3.08;;;19.60;99.90;;;;;;5077377;28;20035;-59
2022/08/22 00:41:53;;;;;;;5.82;2.95;;;19.60;99.90;;;;;;5077858;28;20036;-60
2022/08/22 00:44:42;;;;;;;8.13;3.03;;;19.50;99.90;;;;;;5076386;28;20037;-60
2022/08/22 00:47:36;;;;;;;5.78;2.60;;;19.50;99.90;;;;;;5076860;28;20426;-60
2022/08/22 00:50:34;;;;;;;8.35;2.83;;;19.50;99.90;;;;;;5077227;28;20025;-60
2022/08/22 00:53:30;;;;;;;7.97;3.35;;;19.40;99.90;;;;;;5077364;28;20285;-60
2022/08/22 00:56:17;;;;;;;6.72;3.03;;;19.40;99.90;;;;;;5077792;28;20040;-60
2022/08/22 00:59:06;;;;;;;6.75;3.17;;;19.40;99.90;;;;;;5077147;28;20284;-59
2022/08/22 01:01:36;;;;;;;7.25;2.50;;;19.40;99.90;;;;;;5077075;28;20062;-59
2022/08/22 01:04:28;;;;;;;8.88;3.28;;;19.40;99.90;;;;;;5077027;28;20075;-60
2022/08/22 01:07:11;;;;;;;5.80;3.00;;;19.30;99.90;;;;;;5076352;28;20040;-59
2022/08/22 01:09:59;;;;;;;9.63;2.97;;;19.40;99.90;;;;;;5076988;28;20255;-60
2022/08/22 01:12:40;;;;;;;8.80;3.38;;;19.40;99.90;;;;;;5077381;28;20404;-60
2022/08/22 01:15:15;;;;;;;6.50;3.15;;;19.40;99.90;;;;;;5076942;28;20110;-60
2022/08/22 01:17:59;;;;;;;7.68;3.17;;;19.30;99.90;;;;;;5076534;28;20078;-59
2022/08/22 01:21:03;;;;;;;6.13;3.13;;;19.30;99.90;;;;;;5076878;28;20036;-60
2022/08/22 01:24:11;;;;;;;8.07;3.30;;;19.30;99.90;;;;;;5076016;28;20039;-61
2022/08/22 01:26:47;;;;;;;9.40;2.97;;;19.20;99.90;;;;;;5076766;28;20032;-59
2022/08/22 01:29:21;;;;;;;6.47;3.13;;;19.20;99.90;;;;;;5076685;28;20036;-59
2022/08/22 01:32:18;;;;;;;10.50;3.03;;;19.20;99.90;;;;;;5076896;28;20029;-60
2022/08/22 01:34:59;;;;;;;6.70;3.15;;;19.20;99.90;;;;;;5076670;28;20111;-59
2022/08/22 01:37:52;;;;;;;11.55;3.60;;;19.10;99.90;;;;;;5076767;28;20029;-60
2022/08/22 01:40:21;;;;;;;7.88;3.53;;;19.20;99.90;;;;;;5076691;28;20104;-60
2022/08/22 01:42:53;;;;;;;7.18;3.60;;;19.10;99.90;;;;;;5076645;28;20111;-60
2022/08/22 01:45:46;;;;;;;8.13;3.20;;;19.10;99.90;;;;;;5076538;28;20311;-60
2022/08/22 01:48:30;;;;;;;;;;;19.00;99.90;;;;;;5077052;28;20278;-60
2022/08/22 01:51:25;;;;;;;9.85;3.97;;;19.00;99.90;;;;;;5077208;28;19908;-60
2022/08/22 01:54:06;;;;;;;7.07;3.97;;;19.10;99.90;;;;;;5076837;28;20021;-60
2022/08/22 01:56:37;;;;;;;7.75;3.78;;;19.00;99.90;;;;;;5075786;28;20038;-60
2022/08/22 01:59:31;;;;;;;11.10;4.33;;;19.00;99.90;;;;;;5076648;28;20047;-60
2022/08/22 02:02:19;;;;;;;11.38;4.63;;;19.00;99.90;;;;;;5076516;28;20278;-60
2022/08/22 02:05:00;;;;;;;9.45;3.80;;;19.10;99.90;;;;;;5057044;28;20064;-60
2022/08/22 02:07:52;;;;;;;10.00;4.18;;;19.10;99.90;;;;;;5076822;28;20029;-61
2022/08/22 02:11:01;;;;;;;9.25;4.05;;;19.10;99.90;;;;;;5076479;28;20037;-60
2022/08/22 02:13:59;;;;;;;7.95;4.03;;;19.00;99.90;;;;;;5076352;28;20090;-61
2022/08/22 02:16:36;;;;;;;8.40;3.97;;;19.00;99.90;;;;;;5076400;28;20430;-60
2022/08/22 02:19:13;;;;;;;11.75;4.10;;;19.10;99.90;;;;;;5076635;28;20469;-60
2022/08/22 02:22:03;;;;;;;8.65;4.10;;;19.10;99.90;;;;;;5076299;28;20044;-60
2022/08/22 02:24:32;;;;;;;7.93;3.85;;;19.20;99.90;;;;;;5075496;28;20020;-60
2022/08/22 02:27:29;;;;;;;12.43;4.20;;;19.20;99.90;;;;;;5076121;28;20078;-60
2022/08/22 02:30:13;;;;;;;7.75;4.03;;;19.10;99.90;;;;;;5079762;28;20040;-60
2022/08/22 02:32:39;;;;;;;6.13;3.97;;;19.20;99.90;;;;;;5079800;28;20171;-60
2022/08/22 02:35:05;;;;;;;9.95;4.50;;;19.20;99.90;;;;;;5079683;28;20080;-60
2022/08/22 02:37:46;;;;;;;11.18;4.70;;;19.20;99.90;;;;;;5079708;28;20024;-60
2022/08/22 02:40:33;;;;;;;7.95;4.15;;;19.20;99.90;;;;;;5079965;28;20299;-60
2022/08/22 02:43:02;;;;;;;6.95;3.75;;;19.20;99.90;;;;;;5079845;28;20032;-60
2022/08/22 02:45:45;;;;;;;5.53;3.05;;;19.10;99.90;;;;;;5079673;28;20490;-60
2022/08/22 02:48:33;;;;;;;10.63;3.70;;;19.10;99.90;;;;;;5078837;28;20025;-60
2022/08/22 02:51:08;;;;;;;6.07;3.28;;;19.10;99.90;;;;;;5079479;28;20043;-60
2022/08/22 02:53:55;;;;;;;12.07;3.72;;;19.10;99.90;;;;;;5080019;28;20048;-60
2022/08/22 02:56:33;;;;;;;5.85;3.00;;;19.10;99.90;;;;;;5079408;28;20115;-60
2022/08/22 02:59:22;;;;;;;6.30;3.20;;;19.20;99.90;;;;;;5079362;28;20131;-60
2022/08/22 03:01:48;;;;;;;7.55;3.15;;;19.20;99.90;;;;;;5079266;28;20119;-60
2022/08/22 03:04:23;;;;;;;6.15;3.40;;;19.10;99.90;;;;;;5079285;28;20036;-60
2022/08/22 03:07:24;;;;;;;9.05;3.60;;;19.00;99.90;;;;;;5079137;28;20068;-60
2022/08/22 03:10:09;;;;;;;6.88;3.30;;;19.00;99.90;;;;;;5079173;28;20036;-60
2022/08/22 03:12:54;;;;;;;7.28;3.25;;;19.00;99.90;;;;;;5079051;28;20059;-59
2022/08/22 03:15:33;;;;;;;5.30;3.05;;;19.10;99.90;;;;;;5079007;28;20040;-59
2022/08/22 03:18:25;;;;;;;8.00;3.20;;;19.10;99.90;;;;;;5079029;28;20063;-60
2022/08/22 03:21:11;;;;;;;7.03;3.75;;;19.00;99.90;;;;;;5075887;28;20051;-60
2022/08/22 03:23:45;;;;;;;5.50;3.25;;;19.10;99.90;;;;;;5078827;28;20033;-60
2022/08/22 03:26:26;;;;;;;9.70;3.67;;;19.20;99.90;;;;;;5078724;28;20117;-60
2022/08/22 03:29:04;;;;;;;7.70;3.40;;;19.10;99.90;;;;;;5078475;28;20074;-60
2022/08/22 03:31:32;;;;;;;9.02;3.90;;;19.10;99.90;;;;;;5078676;28;20039;-59
2022/08/22 03:34:20;;;;;;;7.07;3.50;;;19.10;99.90;;;;;;5078590;28;20372;-60
2022/08/22 03:36:56;;;;;;;7.85;3.70;;;19.10;99.90;;;;;;5078541;28;20046;-59
2022/08/22 03:39:54;;;;;;;7.18;3.17;;;19.00;99.90;;;;;;5078485;28;20086;-60
2022/08/22 03:42:33;;;;;;;5.68;3.42;;;19.00;99.90;;;;;;5078137;28;20055;-61
2022/08/22 03:45:19;;;;;;;8.07;3.70;;;19.00;99.90;;;;;;5078376;28;20036;-59
2022/08/22 03:48:12;;;;;;;8.65;3.92;;;19.10;99.90;;;;;;5078147;28;20371;-60
2022/08/22 03:51:08;;;;;;;7.95;3.13;;;19.00;99.90;;;;;;5078298;28;20024;-60
2022/08/22 03:53:40;;;;;;;8.25;3.92;;;18.90;99.90;;;;;;5078424;28;20119;-60
2022/08/22 03:56:37;;;;;;;5.50;3.57;;;18.90;99.90;;;;;;5077521;28;20098;-61
2022/08/22 03:59:09;;;;;;;8.88;3.70;;;18.90;99.90;;;;;;5078151;28;20021;-60
2022/08/22 04:01:38;;;;;;;12.68;4.07;;;18.90;99.90;;;;;;5078070;28;20032;-60
2022/08/22 04:04:12;;;;;;;7.70;3.65;;;19.00;99.90;;;;;;5078115;28;20035;-60
2022/08/22 04:07:02;;;;;;;8.30;3.85;;;19.00;99.90;;;;;;5077896;28;20036;-59
2022/08/22 04:10:02;;;;;;;8.20;4.10;;;19.00;99.90;;;;;;5077973;28;20092;-59
2022/08/22 04:12:52;;;;;;;11.93;4.32;;;18.90;99.90;;;;;;5077901;28;20032;-60
2022/08/22 04:15:44;;;;;;;8.77;3.97;;;19.00;99.90;;;;;;5077791;28;20029;-60
2022/08/22 04:18:44;;;;;;;9.98;4.03;;;19.00;99.90;;;;;;5077807;28;20032;-60
2022/08/22 04:21:39;;;;;;;10.27;4.30;;;19.00;99.90;;;;;;5077417;28;20054;-60
2022/08/22 04:24:18;;;;;;;6.50;4.53;;;18.90;99.90;;;;;;5067888;28;20134;-59
2022/08/22 04:26:52;;;;;;;7.18;4.18;;;18.90;99.90;;;;;;5077622;28;20039;-60
2022/08/22 04:29:34;;;;;;;8.00;4.10;;;18.80;99.90;;;;;;5076687;28;20127;-60
2022/08/22 04:32:13;;;;;;;10.13;4.30;;;18.80;99.90;;;;;;5077560;28;20032;-60
2022/08/22 04:35:03;;;;;;;7.47;3.88;;;18.80;99.90;;;;;;5077472;28;20056;-59
2022/08/22 04:37:47;;;;;;;9.70;4.90;;;18.80;99.90;;;;;;5077843;28;20032;-60
2022/08/22 04:40:22;;;;;;;9.48;4.72;;;18.80;99.90;;;;;;5077539;28;20032;-60
2022/08/22 04:43:08;;;;;;;9.07;4.45;;;18.80;99.90;;;;;;5077213;28;20064;-60
2022/08/22 04:45:40;;;;;;;7.57;4.53;;;18.80;99.90;;;;;;5076377;28;20165;-59
2022/08/22 04:48:20;;;;;;;9.23;4.20;;;18.70;99.90;;;;;;5077455;28;20040;-60
2022/08/22 04:50:59;;;;;;;8.93;4.95;;;18.90;99.90;;;;;;5076848;28;20376;-60
2022/08/22 04:53:34;;;;;;;9.07;4.82;;;18.90;99.90;;;;;;5076758;28;20063;-60
2022/08/22 04:56:25;;;;;;;8.80;4.72;;;18.90;99.90;;;;;;5077351;28;20037;-59
2022/08/22 04:59:09;;;;;;;7.30;4.55;;;18.90;99.90;;;;;;5077100;28;20329;-60
2022/08/22 05:02:04;;;;;;;8.93;4.63;;;18.80;99.90;;;;;;5077100;28;20112;-60
2022/08/22 05:04:43;;;;;;;10.40;5.55;;;18.80;99.90;;;;;;5076862;28;20039;-59
2022/08/22 05:07:12;;;;;;;8.55;5.15;;;18.80;99.90;;;;;;5076775;28;20094;-60
2022/08/22 05:09:43;;;;;;;10.63;5.35;;;18.80;99.90;;;;;;5076929;28;20031;-60
2022/08/22 05:12:14;;;;;;;8.93;5.00;;;18.80;99.90;;;;;;5076916;28;20081;-60
2022/08/22 05:14:47;;;;;;;8.43;4.75;;;18.70;99.90;;;;;;5077177;28;20079;-60
2022/08/22 05:17:20;;;;;;;8.23;4.85;;;18.80;99.90;;;;;;5076892;28;20040;-60
2022/08/22 05:19:49;;;;;;;;;;;18.80;99.90;;;;;;5077271;28;20032;-60
2022/08/22 05:22:26;;;;;;;9.95;4.75;;;18.90;99.90;;;;;;5077001;28;20246;-60
2022/08/22 05:25:15;;;;;;;11.18;5.68;;;18.90;99.90;;;;;;5076841;28;20082;-60
2022/08/22 05:28:00;;;;;;;11.80;5.60;;;19.00;99.90;;;;;;5077324;28;20296;-60
2022/08/22 05:30:32;;;;;;;14.75;5.68;;;19.00;99.90;;;;;;5076837;28;20036;-61
2022/08/22 05:33:00;;;;;;;8.80;5.25;;;19.10;99.90;;;;;;5076802;28;20082;-59
2022/08/22 05:35:46;;;;;;;7.72;5.57;;;19.10;99.90;;;;;;5076779;28;20051;-59
2022/08/22 05:38:16;;;;;;;12.35;5.55;;;19.20;99.90;;;;;;5076253;28;20114;-60
2022/08/22 05:40:43;;;;;;;11.25;5.18;;;19.30;99.90;;;;;;5076682;28;20028;-59
2022/08/22 05:43:11;;;;;;;9.50;5.00;;;19.20;99.90;;;;;;5077204;28;20036;-60
2022/08/22 05:45:43;;;;;;;9.20;5.55;;;19.20;99.90;;;;;;5076525;28;20033;-60
2022/08/22 05:48:19;;;;;;;9.40;5.03;;;19.30;99.90;;;;;;5076688;28;20063;-60
2022/08/22 05:51:05;;;;;;;11.70;5.85;;;19.40;99.90;;;;;;5076639;28;20399;-62
2022/08/22 05:53:36;;;;;;;10.00;5.70;;;19.40;99.90;;;;;;5077089;28;20036;-60
2022/08/22 05:56:25;;;;;;;10.35;6.15;;;19.30;99.90;;;;;;5076575;28;20038;-60
2022/08/22 05:59:00;;;;;;;8.95;5.20;;;19.50;99.90;;;;;;5076938;28;20024;-61
2022/08/22 06:01:37;;;;;;;10.00;5.50;;;19.50;99.90;;;;;;5076741;28;20033;-60
2022/08/22 06:04:28;;;;;;;9.13;6.07;;;19.60;99.90;;;;;;5079021;28;20361;-61
2022/08/22 06:07:08;;;;;;;7.38;5.25;;;19.70;99.90;;;;;;5079526;28;20029;-61
2022/08/22 06:09:45;;;;;;;11.52;5.95;;;19.60;99.90;;;;;;5080174;28;20386;-60
2022/08/22 06:12:29;;;;;;;14.25;6.28;;;19.70;99.90;;;;;;5080180;28;20289;-60
2022/08/22 06:15:05;;;;;;;10.65;5.88;;;19.80;99.90;;;;;;5080205;28;20090;-61
2022/08/22 06:17:41;;;;;;;9.32;5.90;;;19.80;99.90;;;;;;5080605;28;20025;-60
2022/08/22 06:20:12;;;;;;;12.48;6.95;;;19.70;99.90;;;;;;5080344;28;20158;-60
2022/08/22 06:22:49;;;;;;;14.30;6.60;;;19.70;99.90;;;;;;5080016;28;20107;-61
2022/08/22 06:25:22;;;;;;;15.50;7.78;;;19.70;99.90;;;;;;5079044;28;20024;-61
2022/08/22 06:27:48;;;;;;;10.30;6.35;;;19.90;99.90;;;;;;5080264;28;20058;-60
2022/08/22 06:30:16;;;;;;;9.60;6.53;;;19.90;99.90;;;;;;5079733;28;20349;-60
2022/08/22 06:32:51;;;;;;;13.82;7.43;;;19.90;99.90;;;;;;5080029;28;20043;-60
2022/08/22 06:36:29;;;;;;;11.32;6.93;;;20.00;99.90;;;;;;5079703;28;20038;-61
2022/08/22 06:38:19;;;;;;;14.38;7.47;;;20.10;99.90;;;;;;5079598;28;20107;-60
2022/08/22 06:40:45;;;;;;;12.32;7.00;;;20.10;99.90;;;;;;5079637;28;20108;-61
2022/08/22 06:43:12;;;;;;;14.95;7.63;;;20.10;99.90;;;;;;5079014;28;20028;-60
2022/08/22 06:45:39;;;;;;;13.15;7.43;;;20.10;99.90;;;;;;5079579;28;20403;-60
2022/08/22 06:48:05;;;;;;;10.40;6.53;;;20.30;99.90;;;;;;5079485;28;20347;-60
2022/08/22 06:50:37;;;;;;;14.35;6.93;;;20.30;99.90;;;;;;5078714;28;20032;-60
2022/08/22 06:53:07;;;;;;;14.13;7.28;;;20.30;99.90;;;;;;5078749;28;20304;-60
2022/08/22 06:55:36;;;;;;;9.35;6.43;;;20.30;99.90;;;;;;5079622;28;20024;-60
2022/08/22 06:58:10;;;;;;;13.45;7.32;;;20.30;99.90;;;;;;5079324;28;20039;-60
2022/08/22 07:00:37;;;;;;;13.55;7.00;;;20.40;99.90;;;;;;5079519;28;20033;-60
2022/08/22 07:03:27;;;;;;;13.05;6.85;;;20.60;99.90;;;;;;5079317;28;20047;-60
2022/08/22 07:05:55;;;;;;;17.95;7.32;;;20.60;99.90;;;;;;5079299;28;20274;-60
2022/08/22 07:08:23;;;;;;;9.90;6.90;;;20.60;99.90;;;;;;5078819;28;20301;-60
2022/08/22 07:10:57;;;;;;;11.18;6.88;;;20.60;99.90;;;;;;5079140;28;20020;-61
2022/08/22 07:13:25;;;;;;;12.38;7.20;;;20.70;99.90;;;;;;5079065;28;20388;-60
2022/08/22 07:15:58;;;;;;;12.32;7.13;;;20.70;99.90;;;;;;5078104;28;20106;-61
2022/08/22 07:18:28;;;;;;;13.70;7.68;;;20.80;99.90;;;;;;5078964;28;20033;-61
2022/08/22 07:21:03;;;;;;;11.73;7.50;;;20.80;99.90;;;;;;5079136;28;20345;-60
2022/08/22 07:23:36;;;;;;;16.27;8.77;;;20.70;99.90;;;;;;5078893;28;20064;-60
2022/08/22 07:26:20;;;;;;;12.77;8.00;;;20.90;99.90;;;;;;5079282;28;20039;-60
2022/08/22 07:28:57;;;;;;;13.63;8.15;;;20.80;99.90;;;;;;5078713;28;20436;-60
2022/08/22 07:31:43;;;;;;;17.65;9.27;;;20.90;99.90;;;;;;5078763;28;20038;-60
2022/08/22 07:34:18;;;;;;;14.18;7.93;;;21.00;99.90;;;;;;5078678;28;20362;-61
2022/08/22 07:36:43;;;;;;;16.08;8.75;;;21.00;99.90;;;;;;5078145;28;20395;-61
2022/08/22 07:39:26;;;;;;;13.23;8.05;;;21.10;99.90;;;;;;5078802;28;20051;-59
2022/08/22 07:41:58;;;;;;;12.35;7.80;;;21.20;99.90;;;;;;5061072;28;20086;-59
2022/08/22 07:44:30;;;;;;;11.82;7.78;;;21.20;99.90;;;;;;5078367;28;20035;-60
2022/08/22 07:47:00;;;;;;;15.35;8.13;;;21.30;99.90;;;;;;5078825;28;20029;-60
2022/08/22 07:49:34;;;;;;;13.27;7.72;;;21.40;99.90;;;;;;5077929;28;20033;-61
2022/08/22 07:52:08;;;;;;;12.63;8.23;;;21.50;99.90;;;;;;5078280;28;20033;-61
2022/08/22 07:54:44;;;;;;;12.00;7.57;;;21.40;99.90;;;;;;5078258;28;20017;-60
2022/08/22 07:57:12;;;;;;;12.95;7.43;;;21.50;99.90;;;;;;5078840;28;20284;-61
2022/08/22 07:59:52;;;;;;;15.85;7.68;;;21.80;99.90;;;;;;5078104;28;20060;-60
2022/08/22 08:02:19;;;;;;;13.45;7.20;;;22.00;99.90;;;;;;5078791;28;20028;-59
2022/08/22 08:04:48;;;;;;;15.57;7.90;;;21.80;99.90;;;;;;5077336;28;20047;-59
2022/08/22 08:07:16;;;;;;;14.25;6.47;;;22.10;99.90;;;;;;5078297;28;20411;-59
2022/08/22 08:09:49;;;;;;;10.82;7.53;;;22.20;99.90;;;;;;5077819;28;20027;-60
2022/08/22 08:12:19;;;;;;;14.38;6.63;;;22.30;99.90;;;;;;5077935;28;20033;-60
2022/08/22 08:14:48;;;;;;;13.63;6.88;;;22.50;99.90;;;;;;5060769;28;20036;-60
2022/08/22 08:17:41;;;;;;;9.43;6.05;;;22.50;99.90;;;;;;5077873;28;20027;-60
2022/08/22 08:20:09;;;;;;;;;;;22.60;99.90;;;;;;5075717;28;20115;-59
2022/08/22 08:22:37;;;;;;;12.52;6.55;;;22.60;99.90;;;;;;5077033;28;19996;-59
2022/08/22 08:25:05;;;;;;;11.65;6.50;;;22.70;99.90;;;;;;5077690;28;20037;-58
2022/08/22 08:30:45;;;;;;;14.65;6.38;;;23.00;99.90;;;;;;5077614;28;20106;-60
2022/08/22 08:33:17;;;;;;;9.57;5.45;;;22.90;99.90;;;;;;5077598;28;20031;-60
2022/08/22 08:35:51;;;;;;;12.85;6.07;;;23.00;99.90;;;;;;5077741;28;20288;-60
2022/08/22 08:38:24;;;;;;;12.20;6.13;;;23.30;99.90;;;;;;5077420;28;20254;-61
2022/08/22 08:41:19;;;;;;;11.82;5.70;;;23.30;99.90;;;;;;5077382;28;20044;-60
2022/08/22 08:44:08;;;;;;;15.00;6.15;;;23.70;99.90;;;;;;5069565;28;20040;-61
2022/08/22 08:47:01;;;;;;;10.18;5.38;;;23.90;99.90;;;;;;5077506;28;20020;-61
2022/08/22 08:50:05;;;;;;;10.63;5.97;;;24.40;99.90;;;;;;5077219;28;20403;-61
2022/08/22 08:53:02;;;;;;;9.90;5.10;;;24.80;99.90;;;;;;5077196;28;20080;-60
2022/08/22 08:55:56;;;;;;;8.77;5.40;;;25.00;99.90;;;;;;5077041;28;20054;-60
2022/08/22 08:58:31;;;;;;;9.10;4.50;;;25.00;99.90;;;;;;5077161;28;20392;-59
2022/08/22 09:01:10;;;;;;;10.02;4.80;;;24.90;99.90;;;;;;5077091;28;20032;-59
2022/08/22 09:04:20;;;;;;;10.82;4.75;;;25.00;99.90;;;;;;5076398;28;20440;-59
2022/08/22 09:07:08;;;;;;;13.18;5.25;;;25.10;99.90;;;;;;5077054;28;20060;-60
2022/08/22 09:09:57;;;;;;;8.93;4.90;;;25.10;99.90;;;;;;5077073;28;20025;-62
2022/08/22 09:12:54;;;;;;;9.82;4.28;;;24.90;99.90;;;;;;5077630;28;20021;-60
2022/08/22 09:15:53;;;;;;;11.68;4.57;;;24.50;99.90;;;;;;5076126;28;20040;-59
2022/08/22 09:18:25;;;;;;;10.50;4.45;;;23.90;99.90;;;;;;5059048;28;20036;-60
2022/08/22 09:21:25;;;;;;;10.30;4.05;;;23.80;99.90;;;;;;5076920;28;20371;-60
2022/08/22 09:23:53;;;;;;;8.75;3.88;;;23.80;99.90;;;;;;5076804;28;20025;-59
2022/08/22 09:26:47;;;;;;;12.43;4.50;;;24.00;99.90;;;;;;5076740;28;20412;-59
2022/08/22 09:29:33;;;;;;;9.50;4.05;;;24.20;99.90;;;;;;5075835;28;20080;-58
2022/08/22 09:32:04;;;;;;;9.77;3.72;;;23.70;99.90;;;;;;5077313;28;20029;-59
2022/08/22 09:35:01;;;;;;;9.63;3.93;;;23.70;99.90;;;;;;5059377;28;20376;-61
2022/08/22 09:37:49;;;;;;;7.38;3.60;;;23.90;99.90;;;;;;5077428;28;20303;-60
2022/08/22 09:40:27;;;;;;;9.38;3.70;;;23.90;99.90;;;;;;5080925;28;20102;-61
2022/08/22 09:42:54;;;;;;;8.55;3.55;;;24.00;99.90;;;;;;5081446;28;20028;-60
2022/08/22 09:45:35;;;;;;;7.03;3.65;;;24.10;99.90;;;;;;5079928;28;20086;-60
2022/08/22 09:48:17;;;;;;;9.27;3.90;;;23.90;99.90;;;;;;5080790;28;20063;-60
2022/08/22 09:51:02;;;;;;;11.63;3.78;;;23.60;99.90;;;;;;5080227;28;20068;-61
2022/08/22 09:54:01;;;;;;;7.78;3.70;;;23.90;99.90;;;;;;5080643;28;20024;-60
2022/08/22 09:56:45;;;;;;;10.65;3.63;;;24.30;99.90;;;;;;5080637;28;20041;-60
2022/08/22 09:59:22;;;;;;;8.23;3.50;;;24.40;99.90;;;;;;5079831;28;20308;-61
2022/08/22 10:02:22;;;;;;;10.02;4.68;;;24.40;99.90;;;;;;5079862;28;20039;-61
2022/08/22 10:05:28;;;;;;;9.07;4.63;;;24.50;99.90;;;;;;5080465;28;20036;-61
2022/08/22 10:08:06;;;;;;;10.98;4.43;;;24.30;99.90;;;;;;5079619;28;20032;-61
2022/08/22 10:10:37;;;;;;;11.70;4.82;;;24.00;99.90;;;;;;5080271;28;20119;-60
2022/08/22 10:13:22;;;;;;;8.13;3.80;;;23.80;99.90;;;;;;5080290;28;20119;-60
2022/08/22 10:16:01;;;;;;;10.70;4.78;;;23.80;99.90;;;;;;5080158;28;20020;-60
2022/08/22 10:18:56;;;;;;;8.15;3.40;;;23.70;99.90;;;;;;5080185;28;20036;-60
2022/08/22 10:21:39;;;;;;;7.10;3.50;;;24.00;99.90;;;;;;5080175;28;20020;-60
2022/08/22 10:24:50;;;;;;;7.88;3.55;;;24.20;99.90;;;;;;5080152;28;20024;-60
2022/08/22 10:27:41;;;;;;;10.00;3.40;;;24.30;99.90;;;;;;5069295;28;20049;-60
2022/08/22 10:30:23;;;;;;;6.05;2.90;;;24.40;99.90;;;;;;5070044;28;20072;-60
2022/08/22 10:33:12;;;;;;;6.95;2.70;;;24.80;99.90;;;;;;5079231;28;20056;-60
2022/08/22 10:35:56;;;;;;;6.60;2.90;;;25.00;99.90;;;;;;5079999;28;20411;-60
2022/08/22 10:38:31;;;;;;;7.50;2.65;;;25.30;99.90;;;;;;5080325;28;20021;-60
2022/08/22 10:41:19;;;;;;;6.45;2.40;;;25.60;99.90;;;;;;5079775;28;20060;-60
2022/08/22 10:43:54;;;;;;;9.35;2.75;;;25.80;99.90;;;;;;5079660;28;20024;-60
2022/08/22 10:46:33;;;;;;;7.38;2.25;;;26.00;99.90;;;;;;5078816;28;20032;-60
2022/08/22 10:49:11;;;;;;;5.85;2.00;;;26.20;99.90;;;;;;5079328;28;20042;-61
2022/08/22 10:51:48;;;;;;;8.32;2.00;;;26.50;99.90;;;;;;5079107;28;20395;-61
2022/08/22 10:54:26;;;;;;;5.65;1.90;;;27.30;99.90;;;;;;5079553;28;20098;-61
2022/08/22 10:57:00;;;;;;;6.47;1.70;;;28.10;99.90;;;;;;5079568;28;20033;-61
2022/08/22 10:59:35;;;;;;;8.45;2.13;;;28.30;99.90;;;;;;5079621;28;20029;-61
2022/08/22 11:02:18;;;;;;;4.32;1.35;;;29.30;99.90;;;;;;5078641;28;20055;-61
2022/08/22 11:05:04;;;;;;;8.02;2.80;;;29.90;99.90;;;;;;5079570;28;20036;-61
2022/08/22 11:07:39;;;;;;;7.53;2.47;;;30.90;99.90;;;;;;5079020;28;20140;-61
2022/08/22 11:10:19;;;;;;;8.23;2.45;;;29.80;99.90;;;;;;5079251;28;20032;-61
2022/08/22 11:13:19;;;;;;;5.65;1.63;;;29.60;99.90;;;;;;5079135;28;20036;-60
2022/08/22 11:15:56;;;;;;;4.82;1.60;;;29.70;99.90;;;;;;5077969;28;20036;-60
2022/08/22 11:18:48;;;;;;;4.55;2.03;;;30.00;99.90;;;;;;5079663;28;20086;-60
2022/08/22 11:21:32;;;;;;;4.90;1.60;;;29.70;99.90;;;;;;5079179;28;20044;-60
2022/08/22 11:24:26;;;;;;;4.53;2.10;;;29.80;99.90;;;;;;5078879;28;20396;-60
2022/08/22 11:26:55;;;;;;;7.15;2.13;;;29.50;99.90;;;;;;5079030;28;20029;-61
2022/08/22 11:29:44;;;;;;;5.43;1.60;;;29.30;99.90;;;;;;5078623;28;20044;-60
2022/08/22 11:32:44;;;;;;;5.85;1.90;;;30.40;99.90;;;;;;5078912;28;20055;-60
2022/08/22 11:35:19;;;;;;;5.75;1.75;;;31.40;99.90;;;;;;5078645;28;20089;-60
2022/08/22 11:38:00;;;;;;;4.40;1.80;;;31.50;99.90;;;;;;5079257;28;20380;-60
2022/08/22 11:40:32;;;;;;;6.30;1.58;;;30.40;99.10;;;;;;5078612;28;20036;-60
2022/08/22 11:43:30;;;;;;;6.85;1.67;;;30.30;99.70;;;;;;5077929;28;20025;-60
2022/08/22 11:46:12;;;;;;;4.95;1.80;;;30.00;99.50;;;;;;5071358;28;20076;-60
2022/08/22 11:48:56;;;;;;;;;;;29.50;97.90;;;;;;5078906;28;20041;-59
2022/08/22 11:51:37;;;;;;;5.70;1.83;;;29.20;99.90;;;;;;5078377;28;19916;-60
2022/08/22 11:54:12;;;;;;;5.40;1.92;;;29.80;99.70;;;;;;5078311;28;20028;-60
2022/08/22 11:56:43;;;;;;;4.85;2.17;;;30.10;98.70;;;;;;5078401;28;20063;-59
2022/08/22 11:59:18;;;;;;;5.25;1.58;;;30.20;97.90;;;;;;5078581;28;20036;-60
2022/08/22 12:01:58;;;;;;;5.85;1.70;;;30.60;98.20;;;;;;5077024;28;20033;-60
2022/08/22 12:04:40;;;;;;;4.38;1.70;;;30.60;97.80;;;;;;5078160;28;20064;-60
2022/08/22 12:07:15;;;;;;;;;;;30.70;96.60;;;;;;5079076;28;20396;-60
2022/08/22 12:09:50;;;;;;;6.05;1.95;;;30.70;97.90;;;;;;5078050;28;19995;-60
2022/08/22 12:12:19;;;;;;;4.47;1.90;;;30.60;96.80;;;;;;5078043;28;20032;-60
2022/08/22 12:15:09;;;;;;;4.43;1.73;;;30.40;96.60;;;;;;5077899;28;20044;-60
2022/08/22 12:17:53;;;;;;;4.38;2.00;;;30.70;96.90;;;;;;5077832;28;20107;-61
2022/08/22 12:20:40;;;;;;;5.15;1.80;;;31.10;96.70;;;;;;5077744;28;20037;-61
2022/08/22 12:23:23;;;;;;;5.18;1.58;;;31.30;95.60;;;;;;5077791;28;20044;-60
2022/08/22 12:26:02;;;;;;;4.95;1.75;;;31.50;94.70;;;;;;5077900;28;20032;-60
2022/08/22 12:28:40;;;;;;;3.70;1.63;;;31.90;92.70;;;;;;5076748;28;20344;-60
2022/08/22 12:31:35;;;;;;;7.63;2.00;;;31.90;92.60;;;;;;5077933;28;20093;-60
2022/08/22 12:34:13;;;;;;;6.80;1.67;;;31.50;92.70;;;;;;5077515;28;20024;-60
2022/08/22 12:36:52;;;;;;;4.20;1.90;;;31.50;92.00;;;;;;5077558;28;20123;-60
2022/08/22 12:39:34;;;;;;;6.97;1.95;;;30.70;92.00;;;;;;5077482;28;20311;-60
2022/08/22 12:42:20;;;;;;;4.18;1.85;;;30.50;93.60;;;;;;5078053;28;20036;-60
2022/08/22 12:44:46;;;;;;;6.50;2.10;;;30.30;94.80;;;;;;5077342;28;20056;-61
2022/08/22 12:47:23;;;;;;;3.58;1.92;;;30.90;94.20;;;;;;5077109;28;20033;-61
2022/08/22 12:49:55;;;;;;;4.28;1.70;;;31.50;91.70;;;;;;5077151;28;20044;-61
2022/08/22 12:52:56;;;;;;;5.72;1.92;;;31.90;92.20;;;;;;5076481;28;20064;-60
2022/08/22 12:55:27;;;;;;;3.75;1.80;;;32.20;91.40;;;;;;5077122;28;20068;-60
2022/08/22 12:58:21;;;;;;;4.13;1.58;;;33.60;88.80;;;;;;5077231;28;20043;-60
2022/08/22 13:00:48;;;;;;;4.85;1.60;;;34.40;81.20;;;;;;5066367;28;20037;-60
2022/08/22 13:03:46;;;;;;;5.75;1.73;;;35.20;78.30;;;;;;5076361;28;20103;-59
2022/08/22 13:06:33;;;;;;;9.55;1.80;;;34.30;77.70;;;;;;5072647;28;20047;-61
2022/08/22 13:09:00;;;;;;;5.53;1.40;;;36.50;72.20;;;;;;5077049;28;20029;-60
2022/08/22 13:11:29;;;;;;;5.30;1.80;;;39.20;62.70;;;;;;5077182;28;20300;-61
2022/08/22 13:13:58;;;;;;;4.20;1.50;;;39.20;57.80;;;;;;5076305;28;20295;-60
2022/08/22 13:16:35;;;;;;;3.42;1.58;;;38.90;56.80;;;;;;5077064;28;20300;-60
2022/08/22 13:19:07;;;;;;;6.07;1.55;;;38.10;56.30;;;;;;5077299;28;20032;-60
2022/08/22 13:21:38;;;;;;;3.47;1.60;;;36.30;55.00;;;;;;5077124;28;20025;-61
2022/08/22 13:24:09;;;;;;;4.63;1.70;;;36.10;57.00;;;;;;5076978;28;20098;-60
2022/08/22 13:26:37;;;;;;;5.18;1.92;;;35.40;58.40;;;;;;5077094;28;20040;-60
2022/08/22 13:29:45;;;;;;;3.95;1.60;;;35.10;58.90;;;;;;5076716;28;20109;-59
2022/08/22 13:32:39;;;;;;;4.00;1.60;;;35.50;58.20;;;;;;5066361;28;20060;-61
2022/08/22 13:35:08;;;;;;;5.32;1.77;;;38.00;56.00;;;;;;5076962;28;20420;-61
2022/08/22 13:37:43;;;;;;;4.93;1.98;;;40.30;52.50;;;;;;5076954;28;20044;-61
2022/08/22 13:40:30;;;;;;;5.63;1.50;;;39.10;51.80;;;;;;5076700;28;20098;-61
2022/08/22 13:43:08;;;;;;;3.65;1.50;;;38.10;54.20;;;;;;5076767;28;20082;-61
2022/08/22 13:45:36;;;;;;;4.97;1.65;;;38.20;53.30;;;;;;5076693;28;20104;-61
2022/08/22 13:48:13;;;;;;;4.65;1.67;;;37.90;53.50;;;;;;5075966;28;20352;-61
2022/08/22 13:51:06;;;;;;;3.85;1.52;;;37.50;53.90;;;;;;5076938;28;20071;-61
2022/08/22 13:53:40;;;;;;;5.82;1.55;;;38.90;52.30;;;;;;5077117;28;20036;-61
2022/08/22 13:56:23;;;;;;;5.50;1.83;;;38.30;53.30;;;;;;5076531;28;20126;-59
2022/08/22 13:58:55;;;;;;;7.40;1.75;;;37.00;54.20;;;;;;5076237;28;20031;-60